Time;durP1;ratioP1;P1;durP2;ratioP2;P2;SDS_P1;SDS_P2;PMS_P1;PMS_P2;Temp;Humidity;BMP_temperature;BMP_pressure;BME280_temperature;BME280_humidity;BME280_pressure;Samples;Min_cycle;Max_cycle;Signal;HPM_P1;HPM_P2
2023/10/10 00:02:18;;;;;;;;;;;23.00;49.70;;;;;;5073690;28;19962;-65
2023/10/10 00:04:49;;;;;;;;;;;23.00;49.70;;;;;;5074333;28;19925;-65
2023/10/10 00:07:18;;;;;;;;;;;23.00;49.70;;;;;;5073442;28;19932;-65
2023/10/10 00:09:46;;;;;;;;;;;23.00;49.70;;;;;;5073813;28;19924;-65
2023/10/10 00:12:18;;;;;;;;;;;23.00;49.70;;;;;;5074031;28;19925;-65
2023/10/10 00:14:50;;;;;;;;;;;23.00;49.70;;;;;;5073825;28;19928;-65
2023/10/10 00:17:18;;;;;;;;;;;23.00;49.70;;;;;;5075088;28;19929;-65
2023/10/10 00:19:54;;;;;;;;;;;23.00;49.70;;;;;;5093996;28;19924;-65
2023/10/10 00:22:27;;;;;;;;;;;23.00;49.70;;;;;;5094338;28;19932;-65
2023/10/10 00:24:54;;;;;;;;;;;23.00;49.70;;;;;;5093787;28;20022;-65
2023/10/10 00:27:23;;;;;;;;;;;23.00;49.60;;;;;;5094395;28;19939;-65
2023/10/10 00:29:50;;;;;;;;;;;23.00;49.60;;;;;;5093776;28;20388;-65
2023/10/10 00:32:17;;;;;;;;;;;23.00;49.60;;;;;;5093923;28;20010;-64
2023/10/10 00:34:48;;;;;;;;;;;23.00;49.60;;;;;;5093843;28;19924;-65
2023/10/10 00:37:17;;;;;;;;;;;23.00;49.60;;;;;;5092922;28;20011;-65
2023/10/10 00:39:52;;;;;;;;;;;23.00;49.50;;;;;;5093769;28;20325;-65
2023/10/10 00:42:41;;;;;;;;;;;23.10;49.60;;;;;;5092736;28;19924;-65
2023/10/10 00:45:09;;;;;;;;;;;23.00;49.50;;;;;;5093140;28;19931;-65
2023/10/10 00:47:43;;;;;;;;;;;23.10;49.60;;;;;;5093579;28;19924;-65
2023/10/10 00:50:15;;;;;;;;;;;23.10;49.60;;;;;;5093554;28;19932;-65
2023/10/10 00:52:45;;;;;;;;;;;23.10;49.60;;;;;;5093107;28;19924;-65
2023/10/10 00:55:12;;;;;;;;;;;23.00;49.50;;;;;;5093236;28;19977;-65
2023/10/10 00:57:40;;;;;;;;;;;23.00;49.50;;;;;;5092224;28;20006;-65
2023/10/10 01:00:09;;;;;;;;;;;23.00;49.50;;;;;;5093595;28;20626;-65
2023/10/10 01:02:38;;;;;;;;;;;23.00;49.60;;;;;;5091769;28;19928;-65
2023/10/10 01:05:12;;;;;;;;;;;23.00;49.60;;;;;;5092528;28;20011;-65
2023/10/10 01:07:40;;;;;;;;;;;23.00;49.60;;;;;;5093758;28;19970;-65
2023/10/10 01:10:16;;;;;;;;;;;23.00;49.60;;;;;;5092900;28;19925;-65
2023/10/10 01:12:46;;;;;;;;;;;23.00;49.60;;;;;;5093872;28;19928;-65
2023/10/10 01:15:25;;;;;;;;;;;23.00;49.60;;;;;;5092326;28;19928;-66
2023/10/10 01:17:54;;;;;;;;;;;23.00;49.60;;;;;;5093068;28;19925;-65
2023/10/10 01:20:44;;;;;;;;;;;23.00;49.60;;;;;;5093245;28;19924;-66
2023/10/10 01:23:14;;;;;;;;;;;23.00;49.60;;;;;;5092829;28;19928;-66
2023/10/10 01:25:43;;;;;;;;;;;23.00;49.60;;;;;;5091789;28;20391;-65
2023/10/10 01:28:22;;;;;;;;;;;23.00;49.60;;;;;;5092986;28;19998;-65
2023/10/10 01:31:03;;;;;;;;;;;23.00;49.60;;;;;;5097165;28;20395;-65
2023/10/10 01:33:41;;;;;;;;;;;23.00;49.60;;;;;;5113026;28;19928;-65
2023/10/10 01:36:12;;;;;;;;;;;23.00;49.70;;;;;;5113549;28;19931;-65
2023/10/10 01:38:59;;;;;;;;;;;23.00;49.70;;;;;;5113173;28;19924;-65
2023/10/10 01:41:40;;;;;;;;;;;23.00;49.70;;;;;;5111555;28;19989;-65
2023/10/10 01:44:11;;;;;;;;;;;23.00;49.70;;;;;;5113175;28;20356;-66
2023/10/10 01:46:40;;;;;;;;;;;23.00;49.70;;;;;;5112835;28;19969;-65
2023/10/10 01:49:13;;;;;;;;;;;23.00;49.70;;;;;;5112685;28;20010;-65
2023/10/10 01:51:42;;;;;;;;;;;23.00;49.60;;;;;;5112413;28;20022;-65
2023/10/10 01:54:19;;;;;;;;;;;23.00;49.60;;;;;;5113116;28;19991;-66
2023/10/10 01:56:46;;;;;;;;;;;23.00;49.60;;;;;;5113250;28;19924;-66
2023/10/10 01:59:17;;;;;;;;;;;23.00;49.60;;;;;;5101441;28;19924;-64
2023/10/10 02:01:44;;;;;;;;;;;23.00;49.50;;;;;;5092535;28;19946;-64
2023/10/10 02:04:11;;;;;;;;;;;23.00;49.50;;;;;;5092126;28;19935;-64
2023/10/10 02:06:40;;;;;;;;;;;23.00;49.50;;;;;;5092535;28;19931;-64
2023/10/10 02:11:55;;;;;;;;;;;23.00;49.50;;;;;;5093226;28;19924;-64
2023/10/10 02:14:25;;;;;;;;;;;23.00;49.60;;;;;;5093707;28;20057;-64
2023/10/10 02:16:54;;;;;;;;;;;23.00;49.60;;;;;;5095802;28;19924;-64
2023/10/10 02:19:33;;;;;;;;;;;23.00;49.60;;;;;;5096632;28;20338;-64
2023/10/10 02:22:15;;;;;;;;;;;23.00;49.60;;;;;;5096429;28;19924;-64
2023/10/10 02:24:48;;;;;;;;;;;23.00;49.60;;;;;;5097021;28;19924;-64
2023/10/10 02:27:20;;;;;;;;;;;23.00;49.60;;;;;;5096489;28;19971;-65
2023/10/10 02:29:49;;;;;;;;;;;23.00;49.60;;;;;;5096433;28;19924;-64
2023/10/10 02:32:20;;;;;;;;;;;23.00;49.70;;;;;;5096726;28;19930;-64
2023/10/10 02:34:56;;;;;;;;;;;23.00;49.70;;;;;;5100646;28;20030;-64
2023/10/10 02:40:14;;;;;;;;;;;23.00;49.70;;;;;;5116334;28;19928;-64
2023/10/10 02:43:33;;;;;;;;;;;23.00;49.90;;;;;;5116982;28;20379;-64
2023/10/10 02:45:29;;;;;;;;;;;23.00;49.70;;;;;;5116813;28;19978;-64
2023/10/10 02:47:56;;;;;;;;;;;23.00;49.80;;;;;;5116941;28;20320;-64
2023/10/10 02:50:39;;;;;;;;;;;23.00;49.80;;;;;;5116543;28;20339;-65
2023/10/10 02:53:08;;;;;;;;;;;22.90;49.70;;;;;;5116329;28;19931;-64
2023/10/10 02:55:40;;;;;;;;;;;22.90;49.70;;;;;;5115617;28;19923;-64
2023/10/10 02:58:20;;;;;;;;;;;22.90;49.70;;;;;;5116900;28;19969;-64
2023/10/10 03:00:48;;;;;;;;;;;22.90;49.80;;;;;;5116307;28;19957;-64
2023/10/10 03:03:18;;;;;;;;;;;22.90;49.70;;;;;;5116734;28;19977;-64
2023/10/10 03:05:54;;;;;;;;;;;22.90;49.80;;;;;;5115360;28;19969;-64
2023/10/10 03:08:35;;;;;;;;;;;22.90;49.80;;;;;;5115994;28;19924;-65
2023/10/10 03:11:02;;;;;;;;;;;22.90;49.70;;;;;;5114790;28;19928;-64
2023/10/10 03:16:41;;;;;;;;;;;22.90;49.70;;;;;;5116273;28;19924;-64
2023/10/10 03:21:51;;;;;;;;;;;23.00;49.70;;;;;;5115333;28;20273;-64
2023/10/10 03:24:50;;;;;;;;;;;23.00;49.70;;;;;;5115443;28;19970;-66
2023/10/10 03:27:49;;;;;;;;;;;23.00;49.70;;;;;;5115761;28;19924;-65
2023/10/10 03:30:15;;;;;;;;;;;23.00;49.60;;;;;;5115322;28;19927;-66
2023/10/10 03:32:59;;;;;;;;;;;23.00;49.60;;;;;;5115315;28;19924;-66
2023/10/10 03:35:52;;;;;;;;;;;23.00;49.60;;;;;;5115340;28;20032;-66
2023/10/10 03:38:31;;;;;;;;;;;23.00;49.70;;;;;;5082506;28;19971;-68
2023/10/10 05:23:58;;;;;;;;;;;18.80;52.20;;;;;;5071893;28;20035;-63
2023/10/10 05:26:30;;;;;;;;;;;18.70;52.10;;;;;;5083659;28;19932;-64
2023/10/10 05:28:58;;;;;;;;;;;18.60;52.30;;;;;;5078630;28;19929;-63
2023/10/10 05:31:27;;;;;;;;;;;18.50;52.10;;;;;;5077516;28;19924;-64
2023/10/10 05:33:54;;;;;;;;;;;18.50;52.70;;;;;;5071803;28;19945;-64
2023/10/10 05:36:21;;;;;;;;;;;18.40;52.80;;;;;;5072613;28;19940;-64
2023/10/10 05:38:50;;;;;;;;;;;18.30;52.20;;;;;;5068046;28;19931;-65
2023/10/10 05:41:19;;;;;;;;;;;18.30;53.00;;;;;;5077058;28;20024;-64
2023/10/10 05:43:49;;;;;;;;;;;18.20;52.80;;;;;;5072981;28;19924;-63
2023/10/10 05:46:17;;;;;;;;;;;18.20;53.20;;;;;;5076962;28;19924;-64
2023/10/10 05:48:46;;;;;;;;;;;18.20;52.80;;;;;;5072520;28;20304;-66
2023/10/10 05:51:13;;;;;;;;;;;18.20;53.50;;;;;;5074379;28;20343;-64
2023/10/10 05:53:40;;;;;;;;;;;18.20;52.70;;;;;;5077091;28;19932;-63
2023/10/10 05:56:15;;;;;;;;;;;18.10;53.20;;;;;;5080686;28;19924;-64
2023/10/10 05:58:43;;;;;;;;;;;18.10;53.00;;;;;;5076974;28;20301;-63
2023/10/10 06:01:14;;;;;;;;;;;18.10;52.90;;;;;;5070396;28;20480;-63
2023/10/10 06:03:42;;;;;;;;;;;18.00;52.20;;;;;;5072083;28;20404;-63
2023/10/10 06:06:12;;;;;;;;;;;18.10;53.40;;;;;;5074240;28;19971;-63
2023/10/10 06:08:42;;;;;;;;;;;18.00;53.50;;;;;;5078893;28;19931;-63
2023/10/10 06:11:15;;;;;;;;;;;18.00;53.90;;;;;;5077279;28;19925;-63
2023/10/10 06:13:46;;;;;;;;;;;18.00;53.10;;;;;;5071108;28;19932;-64
2023/10/10 06:16:14;;;;;;;;;;;18.00;53.30;;;;;;5072458;28;19928;-63
2023/10/10 06:18:44;;;;;;;;;;;18.00;52.90;;;;;;5079440;28;20287;-63
2023/10/10 06:21:15;;;;;;;;;;;18.00;53.10;;;;;;5079042;28;19932;-64
2023/10/10 06:23:44;;;;;;;;;;;17.90;53.70;;;;;;5072467;28;20316;-63
2023/10/10 06:26:12;;;;;;;;;;;17.90;53.10;;;;;;5077693;28;19934;-63
2023/10/10 06:28:45;;;;;;;;;;;17.90;53.70;;;;;;5079132;28;19924;-63
2023/10/10 06:31:13;;;;;;;;;;;17.90;53.70;;;;;;5080465;28;19931;-62
2023/10/10 06:33:43;;;;;;;;;;;17.90;54.00;;;;;;5078727;28;19924;-63
2023/10/10 06:41:51;;;;;;;;;;;17.90;53.90;;;;;;5076026;28;19924;-63
2023/10/10 06:47:11;;;;;;;;;;;17.90;53.30;;;;;;5079132;28;19932;-64
2023/10/10 06:49:55;;;;;;;;;;;17.80;52.90;;;;;;5082732;28;20371;-64
2023/10/10 06:52:27;;;;;;;;;;;17.90;53.30;;;;;;5073493;28;20031;-65
2023/10/10 06:54:55;;;;;;;;;;;17.90;54.40;;;;;;5070137;28;19971;-65
2023/10/10 06:57:38;;;;;;;;;;;17.80;54.40;;;;;;5074281;28;19924;-64
2023/10/10 07:00:21;;;;;;;;;;;17.90;53.50;;;;;;5076860;28;19924;-64
2023/10/10 07:02:50;;;;;;;;;;;17.80;53.70;;;;;;5075250;28;19943;-64
2023/10/10 07:05:19;;;;;;;;;;;17.90;53.60;;;;;;5074501;28;19970;-65
2023/10/10 07:07:52;;;;;;;;;;;17.90;53.50;;;;;;5080230;28;20666;-65
2023/10/10 07:10:27;;;;;;;;;;;17.80;53.50;;;;;;5077280;28;20398;-65
2023/10/10 07:13:00;;;;;;;;;;;17.80;53.40;;;;;;5071893;28;19924;-67
2023/10/10 07:15:33;;;;;;;;;;;17.80;53.40;;;;;;5071760;28;20368;-65
2023/10/10 07:18:22;;;;;;;;;;;17.80;53.20;;;;;;5080953;28;20368;-66
2023/10/10 07:21:08;;;;;;;;;;;17.90;54.40;;;;;;5074502;28;19993;-65
2023/10/10 07:23:42;;;;;;;;;;;17.80;53.20;;;;;;5073825;28;20015;-65
2023/10/10 07:26:28;;;;;;;;;;;17.90;53.00;;;;;;5072343;28;19928;-65
2023/10/10 07:28:56;;;;;;;;;;;17.90;53.90;;;;;;5073496;28;19932;-65
2023/10/10 07:31:24;;;;;;;;;;;17.90;53.30;;;;;;5077604;28;19940;-66
2023/10/10 07:34:15;;;;;;;;;;;17.90;52.20;;;;;;5073575;28;19981;-68
2023/10/10 07:36:38;;;;;;;;;;;17.90;53.40;;;;;;5075704;28;19928;-70
2023/10/10 07:41:57;;;;;;;;;;;17.80;53.10;;;;;;5076152;28;19929;-67
2023/10/10 07:44:25;;;;;;;;;;;17.80;53.20;;;;;;5072155;28;19928;-65
2023/10/10 07:49:40;;;;;;;;;;;17.90;54.50;;;;;;5075648;28;19967;-64
2023/10/10 07:52:16;;;;;;;;;;;17.90;54.10;;;;;;5071660;28;19944;-64
2023/10/10 07:54:46;;;;;;;;;;;17.90;53.30;;;;;;5071276;28;19935;-64
2023/10/10 07:57:26;;;;;;;;;;;18.00;55.20;;;;;;5069979;28;20013;-66
2023/10/10 07:59:58;;;;;;;;;;;18.00;54.40;;;;;;5067627;28;20011;-63
2023/10/10 08:02:32;;;;;;;;;;;18.00;53.40;;;;;;5071251;28;20384;-65
2023/10/10 08:05:09;;;;;;;;;;;18.00;56.20;;;;;;5071291;28;20345;-66
2023/10/10 08:07:37;;;;;;;;;;;18.00;55.80;;;;;;5074786;28;19970;-65
2023/10/10 08:10:28;;;;;;;;;;;18.00;54.30;;;;;;5068086;28;20388;-64
2023/10/10 08:12:52;;;;;;;;;;;18.00;54.80;;;;;;5071389;28;19958;-66
2023/10/10 08:15:19;;;;;;;;;;;18.10;55.30;;;;;;5078150;28;19990;-69
2023/10/10 08:17:51;;;;;;;;;;;18.10;54.60;;;;;;5075350;28;19928;-68
2023/10/10 08:20:34;;;;;;;;;;;18.10;54.30;;;;;;5077884;28;19935;-68
2023/10/10 08:23:04;;;;;;;;;;;18.20;54.70;;;;;;5074024;28;19928;-71
2023/10/10 08:25:32;;;;;;;;;;;18.30;53.50;;;;;;5077115;28;20398;-66
2023/10/10 08:28:00;;;;;;;;;;;18.30;55.10;;;;;;5074671;28;19932;-66
2023/10/10 08:30:28;;;;;;;;;;;18.20;54.60;;;;;;5078966;28;19932;-67
2023/10/10 08:32:58;;;;;;;;;;;18.20;54.90;;;;;;5074384;28;20010;-67
2023/10/10 08:35:29;;;;;;;;;;;18.20;53.20;;;;;;5077032;28;20055;-65
2023/10/10 08:37:57;;;;;;;;;;;18.20;55.10;;;;;;5077627;28;19928;-69
2023/10/10 08:40:30;;;;;;;;;;;18.20;54.70;;;;;;5077269;28;19978;-67
2023/10/10 08:42:58;;;;;;;;;;;18.20;53.80;;;;;;5072447;28;20345;-69
2023/10/10 08:45:25;;;;;;;;;;;18.10;54.60;;;;;;5071098;28;19932;-67
2023/10/10 08:48:02;;;;;;;;;;;18.10;54.70;;;;;;5071559;28;19986;-66
2023/10/10 08:50:34;;;;;;;;;;;18.10;53.70;;;;;;5078032;28;19924;-65
2023/10/10 08:53:02;;;;;;;;;;;18.00;54.50;;;;;;5078400;28;19925;-64
2023/10/10 08:55:30;;;;;;;;;;;18.00;55.90;;;;;;5072378;28;19936;-67
2023/10/10 08:58:09;;;;;;;;;;;18.00;55.50;;;;;;5071341;28;19928;-66
2023/10/10 09:00:37;;;;;;;;;;;18.00;55.10;;;;;;5072211;28;20787;-69
2023/10/10 09:03:08;;;;;;;;;;;18.00;55.50;;;;;;5072452;28;20284;-68
2023/10/10 09:05:37;;;;;;;;;;;18.00;55.20;;;;;;5080656;28;19985;-67
2023/10/10 09:08:16;;;;;;;;;;;18.10;64.70;;;;;;5072767;28;19936;-66
2023/10/10 09:10:45;;;;;;;;;;;18.50;65.60;;;;;;5076305;28;19963;-70
2023/10/10 09:13:13;;;;;;;;;;;19.10;64.20;;;;;;5078252;28;19946;-69
2023/10/10 09:15:54;;;;;;;;;;;19.50;62.80;;;;;;5072120;28;19940;-68
2023/10/10 09:18:28;;;;;;;;;;;20.00;61.50;;;;;;5073103;28;19936;-68
2023/10/10 09:21:17;;;;;;;;;;;20.40;60.10;;;;;;5077892;28;19948;-70
2023/10/10 09:24:07;;;;;;;;;;;20.80;59.40;;;;;;5082460;28;19974;-68
2023/10/10 09:26:36;;;;;;;;;;;21.10;58.50;;;;;;5074012;28;19929;-68
2023/10/10 09:29:15;;;;;;;;;;;21.40;58.00;;;;;;5071375;28;19928;-69
2023/10/10 09:31:45;;;;;;;;;;;21.70;57.60;;;;;;5072164;28;19935;-69
2023/10/10 09:34:18;;;;;;;;;;;21.90;57.10;;;;;;5073296;28;20372;-69
2023/10/10 09:36:53;;;;;;;;;;;22.00;56.60;;;;;;5073562;28;19928;-67
2023/10/10 09:39:37;;;;;;;;;;;22.20;56.20;;;;;;5072732;28;19960;-68
2023/10/10 09:42:27;;;;;;;;;;;22.30;56.00;;;;;;5072779;28;19928;-69
2023/10/10 09:47:41;;;;;;;;;;;22.60;55.50;;;;;;5065859;28;20044;-68
2023/10/10 09:52:58;;;;;;;;;;;22.80;55.10;;;;;;5074727;28;19947;-69
2023/10/10 09:58:16;;;;;;;;;;;22.90;54.80;;;;;;5074315;28;19986;-67
2023/10/10 10:00:46;;;;;;;;;;;23.00;54.70;;;;;;5073913;28;19932;-69
2023/10/10 10:03:31;;;;;;;;;;;23.10;54.90;;;;;;5069390;28;20046;-65
2023/10/10 10:06:34;;;;;;;;;;;23.20;54.90;;;;;;5070510;28;19932;-67
2023/10/10 10:09:18;;;;;;;;;;;23.30;54.90;;;;;;5072611;28;20019;-65
2023/10/10 10:12:05;;;;;;;;;;;23.40;55.00;;;;;;5073190;28;19933;-66
2023/10/10 10:14:36;;;;;;;;;;;23.50;55.10;;;;;;5069704;28;20349;-67
2023/10/10 10:17:23;;;;;;;;;;;23.60;55.00;;;;;;5071762;28;20449;-65
2023/10/10 10:19:50;;;;;;;;;;;23.70;54.90;;;;;;5073477;28;19928;-63
2023/10/10 10:22:17;;;;;;;;;;;23.70;54.60;;;;;;5076680;28;19955;-68
2023/10/10 10:25:21;;;;;;;;;;;23.80;54.60;;;;;;5078169;28;19924;-65
2023/10/10 10:27:43;;;;;;;;;;;23.90;54.50;;;;;;5076360;28;20327;-67
2023/10/10 10:32:58;;;;;;;;;;;24.00;54.30;;;;;;5075124;28;19929;-66
2023/10/10 10:35:45;;;;;;;;;;;24.10;54.30;;;;;;5075597;28;19927;-66
2023/10/10 10:38:13;;;;;;;;;;;24.10;54.20;;;;;;5075002;28;19924;-65
2023/10/10 10:40:42;;;;;;;;;;;24.20;54.10;;;;;;5072743;28;19967;-64
2023/10/10 10:43:16;;;;;;;;;;;24.20;54.00;;;;;;5076075;28;19936;-68
2023/10/10 10:46:11;;;;;;;;;;;24.30;53.90;;;;;;5074131;28;20400;-64
2023/10/10 10:48:34;;;;;;;;;;;24.30;53.80;;;;;;5076411;28;19940;-61
2023/10/10 10:51:32;;;;;;;;;;;24.40;53.80;;;;;;5074328;28;20023;-65
2023/10/10 10:53:58;;;;;;;;;;;24.40;53.90;;;;;;5078146;28;19981;-60
2023/10/10 10:56:37;;;;;;;;;;;24.50;53.90;;;;;;5075457;28;19967;-62
2023/10/10 10:59:12;;;;;;;;;;;24.50;53.90;;;;;;5079633;28;19928;-66
2023/10/10 11:01:52;;;;;;;;;;;24.50;53.70;;;;;;5072060;28;19975;-65
2023/10/10 11:04:39;;;;;;;;;;;24.50;53.60;;;;;;5073243;28;20292;-66
2023/10/10 11:07:15;;;;;;;;;;;24.50;53.50;;;;;;5075773;28;20033;-66
2023/10/10 11:10:06;;;;;;;;;;;24.50;53.40;;;;;;5072002;28;20459;-65
2023/10/10 11:12:32;;;;;;;;;;;24.50;53.40;;;;;;5074397;28;19939;-66
2023/10/10 11:15:08;;;;;;;;;;;24.50;53.40;;;;;;5073018;28;20452;-68
2023/10/10 11:17:48;;;;;;;;;;;24.40;53.20;;;;;;5077385;28;19944;-67
2023/10/10 11:20:29;;;;;;;;;;;24.50;53.30;;;;;;5074570;28;20012;-66
2023/10/10 11:23:11;;;;;;;;;;;24.50;53.30;;;;;;5075080;28;19955;-68
2023/10/10 11:25:45;;;;;;;;;;;24.50;53.20;;;;;;5078981;28;20419;-67
2023/10/10 11:28:21;;;;;;;;;;;24.50;53.20;;;;;;5073422;28;20407;-65
2023/10/10 11:30:50;;;;;;;;;;;24.50;53.70;;;;;;5070504;28;20387;-67
2023/10/10 11:33:30;;;;;;;;;;;24.50;53.10;;;;;;5076175;28;19932;-69
2023/10/10 11:36:17;;;;;;;;;;;24.60;53.10;;;;;;5077177;28;20065;-67
2023/10/10 11:38:55;;;;;;;;;;;24.60;53.00;;;;;;5070806;28;19983;-66
2023/10/10 11:41:28;;;;;;;;;;;24.60;53.00;;;;;;5091708;28;20011;-65
2023/10/10 11:44:02;;;;;;;;;;;24.60;53.00;;;;;;5067364;28;19932;-67
2023/10/10 11:46:32;;;;;;;;;;;24.70;53.10;;;;;;5064075;28;19933;-69
2023/10/10 11:49:00;;;;;;;;;;;24.60;53.00;;;;;;5067724;28;20447;-67
2023/10/10 11:51:34;;;;;;;;;;;24.60;53.00;;;;;;5075988;28;19932;-68
2023/10/10 11:54:01;;;;;;;;;;;24.60;52.90;;;;;;5076043;28;20028;-66
2023/10/10 11:56:34;;;;;;;;;;;24.60;52.90;;;;;;5072618;28;20112;-67
2023/10/10 11:59:14;;;;;;;;;;;24.70;52.90;;;;;;5070591;28;19981;-67
2023/10/10 12:01:54;;;;;;;;;;;24.70;52.90;;;;;;5070711;28;20002;-67
2023/10/10 12:04:30;;;;;;;;;;;24.70;52.80;;;;;;5070219;28;19933;-64
2023/10/10 12:06:59;;;;;;;;;;;24.70;52.80;;;;;;5074556;28;20023;-67
2023/10/10 12:09:32;;;;;;;;;;;24.70;52.80;;;;;;5080394;28;19931;-67
2023/10/10 12:12:02;;;;;;;;;;;24.70;52.80;;;;;;5074338;28;19931;-67
2023/10/10 12:14:31;;;;;;;;;;;24.70;52.80;;;;;;5078074;28;19944;-69
2023/10/10 12:16:58;;;;;;;;;;;24.70;52.80;;;;;;5075658;28;19932;-64
2023/10/10 12:19:28;;;;;;;;;;;24.70;52.80;;;;;;5074166;28;19981;-67
2023/10/10 12:21:57;;;;;;;;;;;24.70;52.90;;;;;;5081861;28;19954;-68
2023/10/10 12:24:24;;;;;;;;;;;24.70;52.80;;;;;;5075718;28;19928;-67
2023/10/10 12:26:54;;;;;;;;;;;24.70;52.80;;;;;;5078710;28;19933;-68
2023/10/10 12:29:22;;;;;;;;;;;24.70;52.90;;;;;;5076655;28;19932;-66
2023/10/10 12:31:55;;;;;;;;;;;24.70;52.90;;;;;;5070483;28;19961;-67
2023/10/10 12:34:23;;;;;;;;;;;24.70;52.90;;;;;;5073317;28;19928;-66
2023/10/10 12:36:59;;;;;;;;;;;24.70;53.00;;;;;;5076982;28;19936;-67
2023/10/10 12:39:27;;;;;;;;;;;24.70;53.00;;;;;;5070433;28;19932;-67
2023/10/10 12:41:55;;;;;;;;;;;24.70;52.90;;;;;;5082579;28;19933;-68
2023/10/10 12:44:24;;;;;;;;;;;24.70;52.80;;;;;;5073976;28;19932;-68
2023/10/10 12:46:54;;;;;;;;;;;24.70;52.70;;;;;;5073490;28;19932;-68
2023/10/10 12:49:28;;;;;;;;;;;24.70;52.60;;;;;;5070695;28;19928;-67
2023/10/10 12:52:00;;;;;;;;;;;24.70;52.60;;;;;;5075052;28;19969;-68
2023/10/10 12:54:34;;;;;;;;;;;24.80;52.60;;;;;;5080020;28;19980;-66
2023/10/10 12:57:06;;;;;;;;;;;24.80;52.40;;;;;;5073885;28;19924;-68
2023/10/10 12:59:33;;;;;;;;;;;24.80;52.50;;;;;;5072326;28;19933;-68
2023/10/10 13:02:03;;;;;;;;;;;24.80;52.40;;;;;;5069207;28;20023;-67
2023/10/10 13:04:33;;;;;;;;;;;24.80;52.40;;;;;;5068129;28;19928;-65
2023/10/10 13:07:02;;;;;;;;;;;24.80;52.30;;;;;;5070106;28;19932;-66
2023/10/10 13:09:32;;;;;;;;;;;24.80;52.30;;;;;;5069352;28;20419;-68
2023/10/10 13:12:02;;;;;;;;;;;24.80;52.30;;;;;;5073590;28;19932;-65
2023/10/10 13:14:32;;;;;;;;;;;24.80;52.30;;;;;;5072545;28;19928;-66
2023/10/10 13:17:29;;;;;;;;;;;24.80;52.40;;;;;;5078700;28;19938;-64
2023/10/10 13:19:48;;;;;;;;;;;24.80;52.30;;;;;;5075186;28;19956;-66
2023/10/10 13:22:20;;;;;;;;;;;24.80;52.30;;;;;;5075890;28;19928;-65
2023/10/10 13:24:48;;;;;;;;;;;24.80;52.40;;;;;;5073101;28;20027;-68
2023/10/10 13:27:17;;;;;;;;;;;24.70;52.30;;;;;;5071770;28;19928;-67
2023/10/10 13:29:45;;;;;;;;;;;24.80;52.40;;;;;;5074310;28;19924;-67
2023/10/10 13:32:12;;;;;;;;;;;24.80;52.50;;;;;;5077894;28;19924;-68
2023/10/10 13:34:39;;;;;;;;;;;24.80;52.30;;;;;;5071348;28;19958;-68
2023/10/10 13:37:07;;;;;;;;;;;24.80;52.30;;;;;;5076350;28;19985;-67
2023/10/10 13:39:48;;;;;;;;;;;24.80;52.20;;;;;;5075134;28;20049;-68
2023/10/10 13:42:20;;;;;;;;;;;24.80;52.30;;;;;;5077725;28;19983;-68
2023/10/10 13:44:48;;;;;;;;;;;24.80;52.20;;;;;;5075487;28;20390;-68
2023/10/10 13:47:16;;;;;;;;;;;24.90;52.30;;;;;;5075095;28;19977;-67
2023/10/10 13:49:44;;;;;;;;;;;24.90;52.40;;;;;;5080081;28;20383;-67
2023/10/10 13:52:16;;;;;;;;;;;24.90;52.40;;;;;;5079611;28;19932;-65
2023/10/10 13:54:43;;;;;;;;;;;24.90;52.40;;;;;;5074185;28;20009;-62
2023/10/10 13:57:10;;;;;;;;;;;24.90;52.40;;;;;;5073231;28;20031;-62
2023/10/10 13:59:37;;;;;;;;;;;24.90;52.60;;;;;;5076057;28;19924;-63
2023/10/10 14:02:10;;;;;;;;;;;24.90;52.70;;;;;;5073582;28;20368;-65
2023/10/10 14:04:48;;;;;;;;;;;24.90;52.80;;;;;;5072997;28;20025;-64
2023/10/10 14:07:15;;;;;;;;;;;24.90;52.70;;;;;;5072405;28;19936;-65
2023/10/10 14:09:49;;;;;;;;;;;24.90;52.50;;;;;;5079421;28;19925;-65
2023/10/10 14:12:20;;;;;;;;;;;24.90;52.50;;;;;;5080642;28;19935;-64
2023/10/10 14:14:48;;;;;;;;;;;24.90;52.50;;;;;;5082950;28;20024;-63
2023/10/10 14:17:15;;;;;;;;;;;24.90;52.50;;;;;;5084172;28;20426;-66
2023/10/10 14:19:42;;;;;;;;;;;24.90;52.50;;;;;;5077167;28;19944;-64
2023/10/10 14:22:10;;;;;;;;;;;24.90;52.60;;;;;;5076691;28;19998;-67
2023/10/10 14:24:37;;;;;;;;;;;24.80;52.50;;;;;;5085728;28;19972;-66
2023/10/10 14:27:05;;;;;;;;;;;24.80;52.70;;;;;;5079026;28;19948;-67
2023/10/10 14:29:41;;;;;;;;;;;24.80;52.60;;;;;;5075101;28;20357;-67
2023/10/10 14:32:10;;;;;;;;;;;24.70;52.50;;;;;;5082687;28;19924;-69
2023/10/10 14:34:52;;;;;;;;;;;24.70;52.70;;;;;;5078705;28;19924;-63
2023/10/10 14:37:19;;;;;;;;;;;24.70;52.70;;;;;;5081765;28;19928;-65
2023/10/10 14:40:09;;;;;;;;;;;24.70;52.80;;;;;;5073814;28;19925;-64
2023/10/10 14:42:36;;;;;;;;;;;24.70;52.90;;;;;;5077489;28;20343;-64
2023/10/10 14:45:06;;;;;;;;;;;24.70;52.90;;;;;;5082503;28;20007;-65
2023/10/10 14:47:36;;;;;;;;;;;24.60;52.90;;;;;;5089532;28;19935;-65
2023/10/10 14:50:07;;;;;;;;;;;24.60;52.90;;;;;;5094337;28;19924;-65
2023/10/10 14:52:40;;;;;;;;;;;24.60;53.00;;;;;;5075298;28;20015;-65
2023/10/10 14:55:23;;;;;;;;;;;24.60;53.00;;;;;;5075431;28;19928;-65
2023/10/10 14:57:57;;;;;;;;;;;24.60;53.00;;;;;;5077550;28;19987;-65
2023/10/10 15:00:27;;;;;;;;;;;24.60;53.00;;;;;;5095219;28;19924;-65
2023/10/10 15:02:55;;;;;;;;;;;24.60;53.00;;;;;;5088357;28;19936;-64
2023/10/10 15:05:24;;;;;;;;;;;24.60;53.10;;;;;;5073740;28;19943;-65
2023/10/10 15:07:52;;;;;;;;;;;24.60;53.10;;;;;;5075376;28;19928;-65
2023/10/10 15:10:23;;;;;;;;;;;24.50;53.10;;;;;;5075297;28;20023;-65
2023/10/10 15:12:50;;;;;;;;;;;24.50;53.30;;;;;;5074314;28;19924;-65
2023/10/10 15:15:17;;;;;;;;;;;24.50;53.30;;;;;;5075214;28;19931;-65
2023/10/10 15:17:45;;;;;;;;;;;24.50;53.50;;;;;;5075481;28;19971;-65
2023/10/10 15:20:12;;;;;;;;;;;24.50;53.70;;;;;;5074091;28;19960;-65
2023/10/10 15:22:42;;;;;;;;;;;24.50;53.90;;;;;;5074022;28;19968;-65
2023/10/10 15:25:11;;;;;;;;;;;24.50;54.00;;;;;;5075775;28;19928;-64
2023/10/10 15:27:41;;;;;;;;;;;24.40;54.20;;;;;;5075309;28;19970;-65
2023/10/10 15:30:08;;;;;;;;;;;24.40;54.30;;;;;;5075309;28;19924;-65
2023/10/10 15:32:46;;;;;;;;;;;24.40;54.50;;;;;;5075558;28;19929;-65
2023/10/10 15:35:16;;;;;;;;;;;24.40;54.50;;;;;;5073590;28;19971;-65
2023/10/10 15:37:44;;;;;;;;;;;24.30;54.60;;;;;;5075029;28;19924;-65
2023/10/10 15:40:21;;;;;;;;;;;24.30;54.70;;;;;;5073968;28;19934;-65
2023/10/10 15:42:50;;;;;;;;;;;24.30;54.80;;;;;;5074722;28;19925;-65
2023/10/10 15:45:20;;;;;;;;;;;24.30;54.90;;;;;;5073580;28;19931;-65
2023/10/10 15:47:54;;;;;;;;;;;24.30;54.90;;;;;;5074487;28;20471;-65
2023/10/10 15:50:21;;;;;;;;;;;24.30;54.90;;;;;;5072933;28;19925;-65
2023/10/10 15:52:49;;;;;;;;;;;24.20;55.00;;;;;;5074434;28;20427;-64
2023/10/10 15:55:19;;;;;;;;;;;24.20;55.00;;;;;;5073622;28;20003;-64
2023/10/10 15:57:46;;;;;;;;;;;24.20;55.20;;;;;;5073060;28;20356;-65
2023/10/10 16:00:15;;;;;;;;;;;24.20;55.40;;;;;;5074488;28;19924;-65
2023/10/10 16:02:42;;;;;;;;;;;24.20;55.50;;;;;;5073823;28;20330;-65
2023/10/10 16:05:09;;;;;;;;;;;24.10;55.60;;;;;;5073385;28;20010;-65
2023/10/10 16:07:36;;;;;;;;;;;24.10;55.70;;;;;;5074258;28;19932;-65
2023/10/10 16:10:07;;;;;;;;;;;24.10;55.70;;;;;;5073021;28;20330;-65
2023/10/10 16:12:34;;;;;;;;;;;24.10;55.80;;;;;;5074699;28;19924;-65
2023/10/10 16:15:01;;;;;;;;;;;24.10;55.90;;;;;;5073532;28;20015;-65
2023/10/10 16:17:32;;;;;;;;;;;24.10;55.80;;;;;;5074353;28;19924;-62
2023/10/10 16:19:59;;;;;;;;;;;24.00;55.80;;;;;;5073794;28;19929;-64
2023/10/10 16:22:27;;;;;;;;;;;24.00;55.90;;;;;;5073186;28;19929;-64
2023/10/10 16:24:54;;;;;;;;;;;24.00;55.90;;;;;;5073960;28;20339;-64
2023/10/10 16:27:21;;;;;;;;;;;24.00;56.00;;;;;;5074168;28;20007;-65
2023/10/10 16:29:55;;;;;;;;;;;24.00;56.10;;;;;;5071902;28;19982;-63
2023/10/10 16:32:22;;;;;;;;;;;24.00;56.10;;;;;;5073027;28;20402;-63
2023/10/10 16:34:49;;;;;;;;;;;24.00;56.20;;;;;;5073368;28;19928;-63
2023/10/10 16:37:18;;;;;;;;;;;23.90;56.30;;;;;;5073791;28;19967;-65
2023/10/10 16:39:45;;;;;;;;;;;23.90;57.00;;;;;;5073825;28;20265;-66
2023/10/10 16:42:18;;;;;;;;;;;23.90;57.50;;;;;;5072753;28;19925;-66
2023/10/10 16:44:46;;;;;;;;;;;23.90;57.90;;;;;;5071444;28;20398;-66
2023/10/10 16:47:16;;;;;;;;;;;23.90;58.30;;;;;;5072870;28;19974;-65
2023/10/10 16:49:48;;;;;;;;;;;23.90;58.90;;;;;;5072621;28;19924;-65
2023/10/10 16:52:16;;;;;;;;;;;23.90;59.40;;;;;;5071818;28;20395;-65
2023/10/10 16:54:50;;;;;;;;;;;23.80;59.70;;;;;;5070456;28;19924;-65
2023/10/10 16:57:20;;;;;;;;;;;23.80;59.90;;;;;;5073850;28;19924;-65
2023/10/10 16:59:47;;;;;;;;;;;23.80;60.00;;;;;;5072435;28;19983;-66
2023/10/10 17:02:14;;;;;;;;;;;23.80;60.10;;;;;;5073400;28;20027;-65
2023/10/10 17:04:43;;;;;;;;;;;23.70;60.10;;;;;;5073175;28;20007;-66
2023/10/10 17:07:11;;;;;;;;;;;23.70;60.10;;;;;;5072903;28;19928;-65